createdAt,value
2023-05-29T00:00:14.560Z,1208.00
2023-05-29T00:01:14.532Z,1229.00
2023-05-29T00:02:14.515Z,1219.00
2023-05-29T00:03:14.641Z,1234.00
2023-05-29T00:04:14.590Z,1218.00
2023-05-29T00:05:14.521Z,1220.00
2023-05-29T00:06:14.474Z,1222.00
2023-05-29T00:07:14.520Z,1224.00
2023-05-29T00:08:14.476Z,1225.00
2023-05-29T00:09:14.446Z,1223.00
2023-05-29T00:10:14.437Z,1215.00
2023-05-29T00:11:14.458Z,1216.00
2023-05-29T00:12:14.413Z,1228.00
2023-05-29T00:13:14.463Z,1218.00
2023-05-29T00:14:14.424Z,1206.00
2023-05-29T00:15:14.444Z,1224.00
2023-05-29T00:16:14.442Z,1226.00
2023-05-29T00:17:14.395Z,1213.00
2023-05-29T00:18:14.400Z,1220.00
2023-05-29T00:19:14.401Z,1217.00
2023-05-29T00:20:14.401Z,1209.00
2023-05-29T00:21:14.411Z,1231.00
2023-05-29T00:22:14.417Z,1223.00
2023-05-29T00:23:14.445Z,1210.00
2023-05-29T00:24:14.463Z,1219.00
2023-05-29T00:25:14.502Z,1223.00
2023-05-29T00:26:14.521Z,1220.00
2023-05-29T00:27:14.527Z,1207.00
2023-05-29T00:28:14.560Z,1205.00
2023-05-29T00:29:14.584Z,1220.00
2023-05-29T00:30:14.595Z,1227.00
2023-05-29T00:31:14.629Z,1220.00
2023-05-29T00:32:14.655Z,1224.00
2023-05-29T00:33:14.663Z,1209.00
2023-05-29T00:34:14.662Z,1213.00
2023-05-29T00:35:14.649Z,1220.00
2023-05-29T00:36:14.688Z,1225.00
2023-05-29T00:37:14.715Z,1212.00
2023-05-29T00:38:14.736Z,1213.00
2023-05-29T00:39:14.763Z,1214.00
2023-05-29T00:40:14.753Z,1203.00
2023-05-29T00:41:14.752Z,1216.00
2023-05-29T00:42:14.785Z,1213.00
2023-05-29T00:43:14.790Z,1208.00
2023-05-29T00:44:14.811Z,1219.00
2023-05-29T00:45:14.852Z,1219.00
2023-05-29T00:46:14.910Z,1218.00
2023-05-29T00:47:14.884Z,1221.00
2023-05-29T00:48:14.928Z,1225.00
2023-05-29T00:49:14.887Z,1212.00
2023-05-29T00:50:14.936Z,1220.00
2023-05-29T00:51:14.951Z,1217.00
2023-05-29T00:52:14.962Z,1214.00
2023-05-29T00:53:14.985Z,1218.00
2023-05-29T00:54:14.992Z,1210.00
2023-05-29T00:55:14.989Z,1230.00
2023-05-29T00:56:15.004Z,1222.00
2023-05-29T00:57:15.056Z,1216.00
2023-05-29T00:58:15.054Z,1219.00
2023-05-29T00:59:15.018Z,1215.00
2023-05-29T01:00:15.258Z,1225.00
2023-05-29T01:01:15.129Z,1223.00
2023-05-29T01:02:15.176Z,1210.00
2023-05-29T01:03:15.191Z,1205.00
2023-05-29T01:04:15.124Z,1208.00
2023-05-29T01:05:15.133Z,1207.00
2023-05-29T01:06:15.138Z,1222.00
2023-05-29T01:07:15.247Z,1229.00
2023-05-29T01:08:15.167Z,1218.00
2023-05-29T01:09:15.194Z,1223.00
2023-05-29T01:10:15.177Z,1206.00
2023-05-29T01:11:15.233Z,1226.00
2023-05-29T01:12:15.221Z,1203.00
2023-05-29T01:13:15.250Z,1224.00
2023-05-29T01:14:15.362Z,1209.00
2023-05-29T01:15:15.275Z,1205.00
2023-05-29T01:16:15.341Z,1226.00
2023-05-29T01:17:15.315Z,1211.00
2023-05-29T01:18:15.323Z,1224.00
2023-05-29T01:19:15.376Z,1217.00
2023-05-29T01:20:15.418Z,1220.00
2023-05-29T01:21:15.411Z,1215.00
2023-05-29T01:22:15.418Z,1218.00
2023-05-29T01:23:15.472Z,1211.00
2023-05-29T01:24:15.481Z,1224.00
2023-05-29T01:25:15.500Z,1209.00
2023-05-29T01:26:15.559Z,1214.00
2023-05-29T01:27:15.521Z,1215.00
2023-05-29T01:28:15.528Z,1202.00
2023-05-29T01:29:15.572Z,1219.00
2023-05-29T01:30:15.564Z,1218.00
2023-05-29T01:31:15.648Z,1221.00
2023-05-29T01:32:15.635Z,1212.00
2023-05-29T01:33:15.641Z,1224.00
2023-05-29T01:34:15.677Z,1216.00
2023-05-29T01:35:15.673Z,1224.00
2023-05-29T01:36:15.746Z,1203.00
2023-05-29T01:37:15.727Z,1215.00
2023-05-29T01:38:15.728Z,1227.00
2023-05-29T01:39:15.746Z,1215.00
2023-05-29T01:40:15.829Z,1218.00
2023-05-29T01:41:15.861Z,1221.00
2023-05-29T01:42:15.832Z,1208.00
2023-05-29T01:43:15.894Z,1209.00
2023-05-29T01:44:15.959Z,1210.00
2023-05-29T01:45:15.929Z,1219.00
2023-05-29T01:46:15.923Z,1213.00
2023-05-29T01:47:16.035Z,1222.00
2023-05-29T01:48:15.972Z,1206.00
2023-05-29T01:49:15.981Z,1211.00
2023-05-29T01:50:15.972Z,1207.00
2023-05-29T01:51:16.057Z,1214.00
2023-05-29T01:52:16.056Z,1208.00
2023-05-29T01:53:16.090Z,1210.00
2023-05-29T01:54:16.115Z,1212.00
2023-05-29T01:55:16.098Z,1214.00
2023-05-29T01:56:16.104Z,1212.00
2023-05-29T01:57:16.138Z,1212.00
2023-05-29T01:58:16.205Z,1206.00
2023-05-29T01:59:16.210Z,1214.00
2023-05-29T02:00:16.195Z,1212.00
2023-05-29T02:01:16.273Z,1202.00
2023-05-29T02:02:16.242Z,1211.00
2023-05-29T02:03:16.333Z,1210.00
2023-05-29T02:04:16.405Z,1201.00
2023-05-29T02:05:16.302Z,1221.00
2023-05-29T02:06:16.308Z,1214.00
2023-05-29T02:07:16.360Z,1206.00
2023-05-29T02:08:16.357Z,1207.00
2023-05-29T02:09:16.366Z,1204.00
2023-05-29T02:10:16.424Z,1209.00
2023-05-29T02:11:16.500Z,1214.00
2023-05-29T02:12:16.444Z,1216.00
2023-05-29T02:13:16.450Z,1188.00
2023-05-29T02:14:16.463Z,1204.00
2023-05-29T02:15:16.510Z,1204.00
2023-05-29T02:16:16.600Z,1197.00
2023-05-29T02:17:16.538Z,1201.00
2023-05-29T02:18:16.616Z,1214.00
2023-05-29T02:19:16.578Z,1206.00
2023-05-29T02:20:16.621Z,1199.00
2023-05-29T02:21:16.694Z,1212.00
2023-05-29T02:22:16.691Z,1206.00
2023-05-29T02:23:16.755Z,1217.00
2023-05-29T02:24:16.935Z,1210.00
2023-05-29T02:25:16.734Z,1205.00
2023-05-29T02:26:16.875Z,1204.00
2023-05-29T02:27:16.752Z,1206.00
2023-05-29T02:28:16.828Z,1199.00
2023-05-29T02:29:17.028Z,1197.00
2023-05-29T02:30:16.842Z,1213.00
2023-05-29T02:31:17.419Z,1202.00
2023-05-29T02:32:16.903Z,1199.00
2023-05-29T02:33:16.888Z,1215.00
2023-05-29T02:34:17.012Z,1193.00
2023-05-29T02:35:16.974Z,1211.00
2023-05-29T02:36:16.982Z,1206.00
2023-05-29T02:37:16.973Z,1216.00
2023-05-29T02:38:17.030Z,1208.00
2023-05-29T02:39:17.082Z,1204.00
2023-05-29T02:40:17.117Z,1205.00
2023-05-29T02:41:17.103Z,1192.00
2023-05-29T02:42:17.150Z,1217.00
2023-05-29T02:43:17.161Z,1207.00
2023-05-29T02:44:17.244Z,1213.00
2023-05-29T02:45:17.223Z,1222.00
2023-05-29T02:46:17.278Z,1195.00
2023-05-29T02:47:17.281Z,1204.00
2023-05-29T02:48:17.865Z,1205.00
2023-05-29T02:49:17.345Z,1220.00
2023-05-29T02:50:17.357Z,1207.00
2023-05-29T02:51:17.339Z,1208.00
2023-05-29T02:52:17.397Z,1200.00
2023-05-29T02:53:17.395Z,1211.00
2023-05-29T02:54:17.910Z,1203.00
2023-05-29T02:55:17.418Z,1209.00
2023-05-29T02:56:17.467Z,1217.00
2023-05-29T02:57:17.448Z,1217.00
2023-05-29T02:58:17.506Z,1212.00
2023-05-29T02:59:17.476Z,1210.00
2023-05-29T03:00:17.537Z,1199.00
2023-05-29T03:01:17.656Z,1208.00
2023-05-29T03:02:17.571Z,1217.00
2023-05-29T03:03:17.601Z,1203.00
2023-05-29T03:04:17.582Z,1212.00
2023-05-29T03:05:17.616Z,1205.00
2023-05-29T03:06:17.636Z,1204.00
2023-05-29T03:07:17.623Z,1201.00
2023-05-29T03:08:17.732Z,1207.00
2023-05-29T03:09:17.717Z,1194.00
2023-05-29T03:10:17.639Z,1199.00
2023-05-29T03:11:17.715Z,1211.00
2023-05-29T03:12:18.005Z,1207.00
2023-05-29T03:13:17.700Z,1210.00
2023-05-29T03:14:17.760Z,1201.00
2023-05-29T03:15:17.804Z,1200.00
2023-05-29T03:16:17.800Z,1212.00
2023-05-29T03:17:17.830Z,1198.00
2023-05-29T03:18:17.840Z,1208.00
2023-05-29T03:19:17.838Z,1201.00
2023-05-29T03:20:17.977Z,1202.00
2023-05-29T03:21:17.894Z,1196.00
2023-05-29T03:22:17.864Z,1197.00
2023-05-29T03:23:17.920Z,1207.00
2023-05-29T03:24:17.918Z,1202.00
2023-05-29T03:25:17.961Z,1204.00
2023-05-29T03:26:17.964Z,1199.00
2023-05-29T03:27:18.095Z,1212.00
2023-05-29T03:28:18.053Z,1219.00
2023-05-29T03:29:18.069Z,1204.00
2023-05-29T03:30:18.077Z,1206.00
2023-05-29T03:31:18.135Z,1205.00
2023-05-29T03:32:18.104Z,1207.00
2023-05-29T03:33:18.150Z,1201.00
2023-05-29T03:34:18.159Z,1198.00
2023-05-29T03:35:18.231Z,1199.00
2023-05-29T03:36:18.214Z,1210.00
2023-05-29T03:37:18.257Z,1195.00
2023-05-29T03:38:18.239Z,1212.00
2023-05-29T03:39:18.261Z,1209.00
2023-05-29T03:40:18.306Z,1193.00
2023-05-29T03:41:18.306Z,1208.00
2023-05-29T03:42:18.306Z,1204.00
2023-05-29T03:43:18.360Z,1195.00
2023-05-29T03:44:18.370Z,1214.00
2023-05-29T03:45:18.376Z,1206.00
2023-05-29T03:46:18.449Z,1205.00
2023-05-29T03:47:18.446Z,1205.00
2023-05-29T03:48:18.458Z,1202.00
2023-05-29T03:49:18.518Z,1205.00
2023-05-29T03:50:18.528Z,1206.00
2023-05-29T03:51:19.366Z,1202.00
2023-05-29T03:52:18.582Z,1209.00
2023-05-29T03:53:18.636Z,1194.00
2023-05-29T03:54:18.602Z,1192.00
2023-05-29T03:55:18.659Z,1207.00
2023-05-29T03:56:18.619Z,1204.00
2023-05-29T03:57:18.681Z,1197.00
2023-05-29T03:58:18.691Z,1205.00
2023-05-29T03:59:18.749Z,1198.00
2023-05-29T04:00:19.461Z,1183.00
2023-05-29T04:01:18.701Z,1203.00
2023-05-29T04:02:20.239Z,1189.00
2023-05-29T04:03:18.881Z,1196.00
2023-05-29T04:04:18.815Z,1212.00
2023-05-29T04:05:18.755Z,1206.00
2023-05-29T04:06:18.792Z,1198.00
2023-05-29T04:07:18.809Z,1216.00
2023-05-29T04:08:18.854Z,1203.00
2023-05-29T04:09:18.872Z,1184.00
2023-05-29T04:10:18.907Z,1177.00
2023-05-29T04:11:18.911Z,1187.00
2023-05-29T04:12:18.994Z,1177.00
2023-05-29T04:13:18.988Z,1145.00
2023-05-29T04:14:20.409Z,1143.00
2023-05-29T04:15:19.000Z,1109.00
2023-05-29T04:16:19.006Z,1103.00
2023-05-29T04:17:19.144Z,1097.00
2023-05-29T04:18:19.020Z,1079.00
2023-05-29T04:19:19.068Z,1060.00
2023-05-29T04:20:19.098Z,1043.00
2023-05-29T04:21:19.172Z,1036.00
2023-05-29T04:22:19.144Z,999.00
2023-05-29T04:23:19.162Z,978.00
2023-05-29T04:24:19.161Z,941.00
2023-05-29T04:25:19.216Z,953.00
2023-05-29T04:26:19.184Z,945.00
2023-05-29T04:27:19.228Z,931.00
2023-05-29T04:28:19.309Z,923.00
2023-05-29T04:29:19.304Z,902.00
2023-05-29T04:30:19.320Z,884.00
2023-05-29T04:31:19.341Z,882.00
2023-05-29T04:32:19.326Z,872.00
2023-05-29T04:33:19.335Z,868.00
2023-05-29T04:34:19.439Z,871.00
2023-05-29T04:35:19.394Z,850.00
2023-05-29T04:36:19.454Z,846.00
2023-05-29T04:37:19.413Z,837.00
2023-05-29T04:38:19.455Z,842.00
2023-05-29T04:39:19.480Z,845.00
2023-05-29T04:40:19.482Z,824.00
2023-05-29T04:41:19.533Z,836.00
2023-05-29T04:42:19.490Z,825.00
2023-05-29T04:43:19.536Z,827.00
2023-05-29T04:44:19.555Z,818.00
2023-05-29T04:45:19.539Z,831.00
2023-05-29T04:46:19.590Z,830.00
2023-05-29T04:47:19.584Z,830.00
2023-05-29T04:48:19.634Z,818.00
2023-05-29T04:49:19.633Z,811.00
2023-05-29T04:50:19.642Z,835.00
2023-05-29T04:51:19.649Z,822.00
2023-05-29T04:52:19.703Z,829.00
2023-05-29T04:53:19.704Z,824.00
2023-05-29T04:54:19.784Z,831.00
2023-05-29T04:55:19.797Z,833.00
2023-05-29T04:56:19.809Z,828.00
2023-05-29T04:57:19.800Z,836.00
2023-05-29T04:58:19.849Z,841.00
2023-05-29T04:59:19.851Z,821.00
2023-05-29T05:00:19.870Z,829.00
2023-05-29T05:01:19.969Z,848.00
2023-05-29T05:02:19.933Z,831.00
2023-05-29T05:03:19.937Z,830.00
2023-05-29T05:04:19.956Z,857.00
2023-05-29T05:05:20.031Z,844.00
2023-05-29T05:06:20.007Z,836.00
2023-05-29T05:07:20.070Z,858.00
2023-05-29T05:08:20.071Z,845.00
2023-05-29T05:09:20.908Z,857.00
2023-05-29T05:10:20.132Z,852.00
2023-05-29T05:11:20.125Z,851.00
2023-05-29T05:12:20.210Z,862.00
2023-05-29T05:13:20.230Z,876.00
2023-05-29T05:14:20.214Z,860.00
2023-05-29T05:15:20.232Z,857.00
2023-05-29T05:16:20.242Z,872.00
2023-05-29T05:17:20.279Z,876.00
2023-05-29T05:18:20.309Z,881.00
2023-05-29T05:19:20.315Z,875.00
2023-05-29T05:20:20.363Z,867.00
2023-05-29T05:21:20.340Z,888.00
2023-05-29T05:22:20.317Z,879.00
2023-05-29T05:23:20.338Z,880.00
2023-05-29T05:24:20.405Z,896.00
2023-05-29T05:25:20.406Z,891.00
2023-05-29T05:26:20.401Z,906.00
2023-05-29T05:27:20.469Z,895.00
2023-05-29T05:28:20.466Z,891.00
2023-05-29T05:29:20.468Z,893.00
2023-05-29T05:30:20.486Z,903.00
2023-05-29T05:31:20.539Z,894.00
2023-05-29T05:32:20.502Z,907.00
2023-05-29T05:33:20.552Z,908.00
2023-05-29T05:34:20.570Z,890.00
2023-05-29T05:35:20.593Z,920.00
2023-05-29T05:36:21.485Z,916.00
2023-05-29T05:37:21.409Z,944.00
2023-05-29T05:38:20.645Z,942.00
2023-05-29T05:39:20.652Z,924.00
2023-05-29T05:40:20.651Z,947.00
2023-05-29T05:41:20.674Z,948.00
2023-05-29T05:42:20.716Z,920.00
2023-05-29T05:43:20.739Z,918.00
2023-05-29T05:44:20.688Z,913.00
2023-05-29T05:45:20.749Z,902.00
2023-05-29T05:46:20.814Z,896.00
2023-05-29T05:47:20.762Z,895.00
2023-05-29T05:48:20.762Z,894.00
2023-05-29T05:49:21.429Z,888.00
2023-05-29T05:50:20.816Z,878.00
2023-05-29T05:51:20.890Z,847.00
2023-05-29T05:52:20.843Z,866.00
2023-05-29T05:53:20.904Z,858.00
2023-05-29T05:54:20.957Z,843.00
2023-05-29T05:55:21.043Z,828.00
2023-05-29T05:56:21.043Z,822.00
2023-05-29T05:57:21.042Z,814.00
2023-05-29T05:58:21.040Z,817.00
2023-05-29T05:59:21.091Z,814.00
2023-05-29T06:00:21.083Z,784.00
2023-05-29T06:01:21.121Z,773.00
2023-05-29T06:02:21.208Z,778.00
2023-05-29T06:03:21.357Z,770.00
2023-05-29T06:04:21.236Z,777.00
2023-05-29T06:05:21.136Z,774.00
2023-05-29T06:06:21.199Z,769.00
2023-05-29T06:07:21.226Z,758.00
2023-05-29T06:08:21.263Z,749.00
2023-05-29T06:09:23.023Z,740.00
2023-05-29T06:10:21.290Z,739.00
2023-05-29T06:11:21.321Z,739.00
2023-05-29T06:12:21.346Z,732.00
2023-05-29T06:13:21.393Z,728.00
2023-05-29T06:14:21.396Z,717.00
2023-05-29T06:15:21.414Z,712.00
2023-05-29T06:16:21.487Z,715.00
2023-05-29T06:17:23.380Z,721.00
2023-05-29T06:18:21.477Z,708.00
2023-05-29T06:19:21.487Z,706.00
2023-05-29T06:20:21.567Z,683.00
2023-05-29T06:21:21.548Z,681.00
2023-05-29T06:22:21.608Z,679.00
2023-05-29T06:23:21.617Z,674.00
2023-05-29T06:24:21.620Z,665.00
2023-05-29T06:25:21.686Z,665.00
2023-05-29T06:26:21.691Z,672.00
2023-05-29T06:27:21.675Z,663.00
2023-05-29T06:28:21.749Z,665.00
2023-05-29T06:29:21.761Z,665.00
2023-05-29T06:30:22.023Z,660.00
2023-05-29T06:31:21.806Z,662.00
2023-05-29T06:32:22.426Z,658.00
2023-05-29T06:33:21.846Z,658.00
2023-05-29T06:34:21.909Z,659.00
2023-05-29T06:35:21.917Z,658.00
2023-05-29T06:36:21.968Z,655.00
2023-05-29T06:37:21.963Z,654.00
2023-05-29T06:38:22.035Z,657.00
2023-05-29T06:39:22.036Z,656.00
2023-05-29T06:40:22.047Z,655.00
2023-05-29T06:41:22.095Z,656.00
2023-05-29T06:42:22.090Z,651.00
2023-05-29T06:43:22.099Z,653.00
2023-05-29T06:44:22.113Z,648.00
2023-05-29T06:45:22.165Z,659.00
2023-05-29T06:46:22.589Z,651.00
2023-05-29T06:47:22.186Z,648.00
2023-05-29T06:48:22.258Z,653.00
2023-05-29T06:49:22.272Z,651.00
2023-05-29T06:50:22.322Z,648.00
2023-05-29T06:51:22.337Z,644.00
2023-05-29T06:52:22.383Z,648.00
2023-05-29T06:53:22.364Z,641.00
2023-05-29T06:54:22.384Z,644.00
2023-05-29T06:55:22.403Z,644.00
2023-05-29T06:56:22.470Z,642.00
2023-05-29T06:57:22.473Z,639.00
2023-05-29T06:58:22.469Z,644.00
2023-05-29T06:59:22.562Z,637.00
2023-05-29T07:00:23.439Z,642.00
2023-05-29T07:01:22.552Z,637.00
2023-05-29T07:02:22.579Z,640.00
2023-05-29T07:03:23.149Z,640.00
2023-05-29T07:04:22.595Z,637.00
2023-05-29T07:05:22.606Z,635.00
2023-05-29T07:06:22.617Z,636.00
2023-05-29T07:07:22.648Z,635.00
2023-05-29T07:08:22.646Z,633.00
2023-05-29T07:09:22.736Z,633.00
2023-05-29T07:10:22.743Z,633.00
2023-05-29T07:11:22.775Z,631.00
2023-05-29T07:12:22.801Z,635.00
2023-05-29T07:13:22.794Z,633.00
2023-05-29T07:14:23.454Z,632.00
2023-05-29T07:15:22.826Z,630.00
2023-05-29T07:16:25.394Z,631.00
2023-05-29T07:17:22.855Z,628.00
2023-05-29T07:18:22.921Z,625.00
2023-05-29T07:19:22.853Z,634.00
2023-05-29T07:20:22.827Z,626.00
2023-05-29T07:21:23.583Z,632.00
2023-05-29T07:22:22.828Z,626.00
2023-05-29T07:23:22.855Z,623.00
2023-05-29T07:24:23.454Z,626.00
2023-05-29T07:25:22.771Z,625.00
2023-05-29T07:26:22.809Z,622.00
2023-05-29T07:27:22.761Z,623.00
2023-05-29T07:28:22.921Z,627.00
2023-05-29T07:29:22.842Z,622.00
2023-05-29T07:30:23.452Z,620.00
2023-05-29T07:31:22.786Z,619.00
2023-05-29T07:32:22.710Z,622.00
2023-05-29T07:33:22.748Z,621.00
2023-05-29T07:34:22.652Z,620.00
2023-05-29T07:35:22.672Z,618.00
2023-05-29T07:36:22.733Z,619.00
2023-05-29T07:37:22.656Z,620.00
2023-05-29T07:38:22.670Z,610.00
2023-05-29T07:39:22.636Z,621.00
2023-05-29T07:40:22.741Z,617.00
2023-05-29T07:41:22.697Z,620.00
2023-05-29T07:42:23.087Z,619.00
2023-05-29T07:43:22.628Z,620.00
2023-05-29T07:44:22.639Z,619.00
2023-05-29T07:45:22.596Z,619.00
2023-05-29T07:46:22.694Z,620.00
2023-05-29T07:47:22.585Z,618.00
2023-05-29T07:48:23.215Z,620.00
2023-05-29T07:49:22.701Z,619.00
2023-05-29T07:50:23.064Z,621.00
2023-05-29T07:51:23.558Z,619.00
2023-05-29T07:52:22.540Z,618.00
2023-05-29T07:53:22.544Z,615.00
2023-05-29T07:54:22.534Z,620.00
2023-05-29T07:55:22.494Z,620.00
2023-05-29T07:56:22.493Z,624.00
2023-05-29T07:57:22.588Z,624.00
2023-05-29T07:58:22.590Z,627.00
2023-05-29T07:59:22.624Z,623.00
2023-05-29T08:00:22.608Z,629.00
2023-05-29T08:01:22.685Z,629.00
2023-05-29T08:02:22.761Z,632.00
2023-05-29T08:03:22.803Z,635.00
2023-05-29T08:04:23.065Z,635.00
2023-05-29T08:05:22.754Z,637.00
2023-05-29T08:06:22.742Z,635.00
2023-05-29T08:07:22.751Z,635.00
2023-05-29T08:08:22.792Z,638.00
2023-05-29T08:09:22.796Z,642.00
2023-05-29T08:10:22.793Z,644.00
2023-05-29T08:11:22.778Z,643.00
2023-05-29T08:12:22.797Z,646.00
2023-05-29T08:13:22.839Z,644.00
2023-05-29T08:14:22.851Z,649.00
2023-05-29T08:15:22.863Z,646.00
2023-05-29T08:16:22.878Z,653.00
2023-05-29T08:17:23.465Z,656.00
2023-05-29T08:18:22.904Z,654.00
2023-05-29T08:19:23.002Z,656.00
2023-05-29T08:20:23.089Z,658.00
2023-05-29T08:21:23.007Z,656.00
2023-05-29T08:22:23.033Z,659.00
2023-05-29T08:23:23.075Z,656.00
2023-05-29T08:24:23.118Z,658.00
2023-05-29T08:25:23.066Z,658.00
2023-05-29T08:26:23.143Z,662.00
2023-05-29T08:27:23.098Z,671.00
2023-05-29T08:28:23.103Z,662.00
2023-05-29T08:29:23.112Z,664.00
2023-05-29T08:30:23.168Z,660.00
2023-05-29T08:31:23.190Z,658.00
2023-05-29T08:32:23.193Z,655.00
2023-05-29T08:33:23.188Z,657.00
2023-05-29T08:34:24.767Z,646.00
2023-05-29T08:35:23.230Z,648.00
2023-05-29T08:36:23.293Z,642.00
2023-05-29T08:37:23.325Z,642.00
2023-05-29T08:38:23.382Z,634.00
2023-05-29T08:39:23.351Z,635.00
2023-05-29T08:40:23.378Z,628.00
2023-05-29T08:41:23.521Z,626.00
2023-05-29T08:42:23.415Z,618.00
2023-05-29T08:43:23.502Z,624.00
2023-05-29T08:44:23.492Z,609.00
2023-05-29T08:45:23.548Z,619.00
2023-05-29T08:46:23.635Z,606.00
2023-05-29T08:47:23.545Z,612.00
2023-05-29T08:48:23.598Z,605.00
2023-05-29T08:49:23.584Z,604.00
2023-05-29T08:50:23.561Z,600.00
2023-05-29T08:51:23.576Z,600.00
2023-05-29T08:52:23.630Z,597.00
2023-05-29T08:53:23.639Z,593.00
2023-05-29T08:54:23.635Z,592.00
2023-05-29T08:55:23.688Z,583.00
2023-05-29T08:56:34.125Z,582.00
2023-05-29T08:57:24.679Z,583.00
2023-05-29T08:58:23.674Z,583.00
2023-05-29T08:59:23.634Z,584.00
2023-05-29T09:00:23.742Z,580.00
2023-05-29T09:01:23.716Z,582.00
2023-05-29T09:02:23.613Z,574.00
2023-05-29T09:03:23.791Z,573.00
2023-05-29T09:04:23.600Z,567.00
2023-05-29T09:05:23.619Z,561.00
2023-05-29T09:06:23.749Z,565.00
2023-05-29T09:07:23.619Z,558.00
2023-05-29T09:08:24.490Z,556.00
2023-05-29T09:09:24.497Z,552.00
2023-05-29T09:10:23.586Z,548.00
2023-05-29T09:11:23.560Z,551.00
2023-05-29T09:12:23.564Z,548.00
2023-05-29T09:13:23.529Z,542.00
2023-05-29T09:14:23.621Z,539.00
2023-05-29T09:15:23.545Z,540.00
2023-05-29T09:16:23.681Z,536.00
2023-05-29T09:17:23.530Z,538.00
2023-05-29T09:18:23.568Z,528.00
2023-05-29T09:19:23.578Z,532.00
2023-05-29T09:20:23.582Z,533.00
2023-05-29T09:21:23.621Z,529.00
2023-05-29T09:22:23.696Z,529.00
2023-05-29T09:23:23.632Z,534.00
2023-05-29T09:24:23.672Z,518.00
2023-05-29T09:25:23.687Z,517.00
2023-05-29T09:26:23.681Z,521.00
2023-05-29T09:27:23.693Z,514.00
2023-05-29T09:28:23.746Z,510.00
2023-05-29T09:29:23.766Z,511.00
2023-05-29T09:30:23.801Z,511.00
2023-05-29T09:31:23.824Z,512.00
2023-05-29T09:32:23.935Z,508.00
2023-05-29T09:33:23.838Z,508.00
2023-05-29T09:34:23.875Z,509.00
2023-05-29T09:35:23.963Z,501.00
2023-05-29T09:36:23.884Z,500.00
2023-05-29T09:37:23.901Z,501.00
2023-05-29T09:38:43.970Z,504.00
2023-05-29T09:39:25.119Z,504.00
2023-05-29T09:40:23.930Z,503.00
2023-05-29T09:41:23.920Z,504.00
2023-05-29T09:42:26.259Z,501.00
2023-05-29T09:43:24.050Z,496.00
2023-05-29T09:44:24.045Z,503.00
2023-05-29T09:45:24.211Z,500.00
2023-05-29T09:46:24.140Z,501.00
2023-05-29T09:47:24.142Z,501.00
2023-05-29T09:48:24.162Z,501.00
2023-05-29T09:49:24.592Z,500.00
2023-05-29T09:50:24.187Z,505.00
2023-05-29T09:51:25.408Z,503.00
2023-05-29T09:52:24.247Z,501.00
2023-05-29T09:53:24.252Z,509.00
2023-05-29T09:54:24.286Z,507.00
2023-05-29T09:55:24.294Z,500.00
2023-05-29T09:56:24.339Z,503.00
2023-05-29T09:57:24.356Z,505.00
2023-05-29T09:58:24.457Z,511.00
2023-05-29T09:59:24.418Z,509.00
2023-05-29T10:00:24.434Z,507.00
2023-05-29T10:01:24.529Z,502.00
2023-05-29T10:02:24.556Z,509.00
2023-05-29T10:03:24.548Z,515.00
2023-05-29T10:04:25.505Z,520.00
2023-05-29T10:05:24.615Z,522.00
2023-05-29T10:06:24.626Z,528.00
2023-05-29T10:07:24.585Z,524.00
2023-05-29T10:08:24.595Z,528.00
2023-05-29T10:09:24.605Z,537.00
2023-05-29T10:10:24.674Z,540.00
2023-05-29T10:11:24.669Z,546.00
2023-05-29T10:12:24.714Z,551.00
2023-05-29T10:13:24.684Z,557.00
2023-05-29T10:14:24.770Z,556.00
2023-05-29T10:15:24.784Z,561.00
2023-05-29T10:16:24.842Z,568.00
2023-05-29T10:17:24.843Z,572.00
2023-05-29T10:18:24.862Z,581.00
2023-05-29T10:19:24.907Z,584.00
2023-05-29T10:20:24.986Z,585.00
2023-05-29T10:21:24.986Z,594.00
2023-05-29T10:22:24.936Z,599.00
2023-05-29T10:23:25.009Z,599.00
2023-05-29T10:24:24.953Z,613.00
2023-05-29T10:25:24.974Z,612.00
2023-05-29T10:26:24.987Z,615.00
2023-05-29T10:27:25.039Z,619.00
2023-05-29T10:28:25.039Z,628.00
2023-05-29T10:29:25.125Z,634.00
2023-05-29T10:30:25.139Z,628.00
2023-05-29T10:31:25.158Z,637.00
2023-05-29T10:32:25.211Z,645.00
2023-05-29T10:33:25.137Z,646.00
2023-05-29T10:34:25.150Z,651.00
2023-05-29T10:35:25.245Z,653.00
2023-05-29T10:36:25.323Z,654.00
2023-05-29T10:37:25.245Z,657.00
2023-05-29T10:38:25.227Z,660.00
2023-05-29T10:39:25.268Z,665.00
2023-05-29T10:40:25.288Z,668.00
2023-05-29T10:41:25.269Z,693.00
2023-05-29T10:42:25.322Z,687.00
2023-05-29T10:43:25.344Z,693.00
2023-05-29T10:44:25.340Z,709.00
2023-05-29T10:45:25.408Z,718.00
2023-05-29T10:46:25.432Z,721.00
2023-05-29T10:47:25.469Z,726.00
2023-05-29T10:48:25.554Z,735.00
2023-05-29T10:49:25.481Z,738.00
2023-05-29T10:50:25.504Z,752.00
2023-05-29T10:51:26.172Z,746.00
2023-05-29T10:52:25.567Z,756.00
2023-05-29T10:53:25.648Z,762.00
2023-05-29T10:54:25.623Z,766.00
2023-05-29T10:55:25.627Z,758.00
2023-05-29T10:56:25.626Z,760.00
2023-05-29T10:57:25.728Z,763.00
2023-05-29T10:58:25.825Z,774.00
2023-05-29T10:59:25.759Z,777.00
2023-05-29T11:00:25.749Z,774.00
2023-05-29T11:01:25.819Z,779.00
2023-05-29T11:02:25.863Z,780.00
2023-05-29T11:03:25.866Z,782.00
2023-05-29T11:04:25.912Z,801.00
2023-05-29T11:05:25.898Z,806.00
2023-05-29T11:06:25.904Z,795.00
2023-05-29T11:07:25.975Z,815.00
2023-05-29T11:08:25.973Z,806.00
2023-05-29T11:09:25.978Z,814.00
2023-05-29T11:10:26.028Z,817.00
2023-05-29T11:11:26.042Z,825.00
2023-05-29T11:12:26.097Z,830.00
2023-05-29T11:13:26.127Z,825.00
2023-05-29T11:14:26.113Z,828.00
2023-05-29T11:15:26.138Z,842.00
2023-05-29T11:16:26.239Z,830.00
2023-05-29T11:17:26.252Z,824.00
2023-05-29T11:18:26.276Z,840.00
2023-05-29T11:19:26.256Z,844.00
2023-05-29T11:20:26.216Z,836.00
2023-05-29T11:21:26.314Z,838.00
2023-05-29T11:22:26.318Z,841.00
2023-05-29T11:23:26.335Z,846.00
2023-05-29T11:24:27.045Z,841.00
2023-05-29T11:25:26.364Z,848.00
2023-05-29T11:26:26.422Z,851.00
2023-05-29T11:27:26.429Z,842.00
2023-05-29T11:28:26.423Z,853.00
2023-05-29T11:29:26.463Z,858.00
2023-05-29T11:30:26.442Z,848.00
2023-05-29T11:31:26.492Z,860.00
2023-05-29T11:32:26.487Z,853.00
2023-05-29T11:33:26.509Z,865.00
2023-05-29T11:34:26.570Z,860.00
2023-05-29T11:35:26.575Z,851.00
2023-05-29T11:36:26.602Z,866.00
2023-05-29T11:37:26.593Z,860.00
2023-05-29T11:38:26.634Z,865.00
2023-05-29T11:39:26.642Z,867.00
2023-05-29T11:40:26.648Z,867.00
2023-05-29T11:41:26.706Z,865.00
2023-05-29T11:42:26.741Z,869.00
2023-05-29T11:43:26.751Z,864.00
2023-05-29T11:44:26.754Z,861.00
2023-05-29T11:45:26.747Z,876.00
2023-05-29T11:46:26.796Z,870.00
2023-05-29T11:47:26.858Z,863.00
2023-05-29T11:48:26.817Z,868.00
2023-05-29T11:49:26.892Z,870.00
2023-05-29T11:50:26.841Z,871.00
2023-05-29T11:51:26.895Z,860.00
2023-05-29T11:52:26.901Z,869.00
2023-05-29T11:53:26.959Z,872.00
2023-05-29T11:54:26.960Z,869.00
2023-05-29T11:55:27.034Z,877.00
2023-05-29T11:56:27.028Z,871.00
2023-05-29T11:57:27.070Z,871.00
2023-05-29T11:58:27.074Z,883.00
2023-05-29T11:59:27.097Z,887.00
2023-05-29T12:00:27.153Z,869.00
2023-05-29T12:01:27.114Z,876.00
2023-05-29T12:02:28.388Z,885.00
2023-05-29T12:03:27.342Z,887.00
2023-05-29T12:04:27.218Z,880.00
2023-05-29T12:05:27.293Z,871.00
2023-05-29T12:06:27.295Z,866.00
2023-05-29T12:07:27.446Z,877.00
2023-05-29T12:08:27.348Z,873.00
2023-05-29T12:09:27.436Z,873.00
2023-05-29T12:10:27.442Z,878.00
2023-05-29T12:11:27.486Z,888.00
2023-05-29T12:12:27.499Z,887.00
2023-05-29T12:13:27.588Z,885.00
2023-05-29T12:14:27.562Z,886.00
2023-05-29T12:15:27.560Z,889.00
2023-05-29T12:16:28.102Z,882.00
2023-05-29T12:17:27.682Z,888.00
2023-05-29T12:18:27.748Z,878.00
2023-05-29T12:19:27.706Z,879.00
2023-05-29T12:20:27.743Z,897.00